Aviation Digital Data Service (ADDS)

Output produced by METARs form (2340 UTC 15 February 2019)
found at http://www.aviationweather.gov/metar/data/
 
Forecast for: OEMA (MADINAH INTL ARP, SA)
Text: TAF OEMA 152300Z 1600/1706 VRB03KT CAVOK
Forecast period: 0000 to 0600 UTC 16 February 2019
Forecast type: FROM: standard forecast or significant change
Winds: variable direction winds at 3 MPH (3 knots; 1.5 m/s)
Visibility: 6 or more miles 10+ km)
Ceiling: unknown
Clouds: missing
Weather: NSW  (no significant weather)
Text: BECMG 1606/1608 29014KT
Forecast period: 0600 UTC 16 February 2019 to 0600 UTC 17 February 2019
Forecast type: BECOMING: Conditions expected to become as follows by 0800 UTC 16 February 2019
Winds: from the WNW (290 degrees) at 16 MPH (14 knots; 7.2 m/s)
Visibility: 6 or more miles 10+ km)
Ceiling: unknown
Clouds: missing
Weather: NSW  (no significant weather)